.
WxDataArchive / Data Records for 2013-05-13
2013-05-12 May 2013 2013-05-14

Data Records for Monday, 13 May 2013

Time	Temp	Chill	HIndex	Humid	Dewpt	 Wind 	HiWind	WindDir	Rain 	Barom 
-----	----	-----	------	-----	-----	------	------	-------	-----	----- 
00:00	38.2	38.2	38.2	69	28.9	0	0	---	0.00	30.119 
00:05	38.0	38.0	38.0	69	28.7	0	0	---	0.00	30.119 
00:10	37.8	37.8	37.8	70	28.9	0	0	---	0.00	30.119 
00:15	37.6	37.6	37.6	70	28.7	0	0	---	0.00	30.118 
00:20	37.3	37.3	37.3	70	28.4	0	0	---	0.00	30.118 
00:25	37.0	37.0	37.0	71	28.5	0	0	---	0.00	30.118 
00:30	36.9	36.9	36.9	72	28.7	0	0	---	0.00	30.117 
00:35	36.6	36.6	36.6	73	28.8	0	0	---	0.00	30.117 
00:40	36.3	36.3	36.3	74	28.8	0	0	---	0.00	30.117 
00:45	36.0	36.0	36.0	75	28.9	0	0	---	0.00	30.118 
00:50	35.9	35.9	35.9	76	29.1	0	0	---	0.00	30.118 
00:55	35.6	35.6	35.6	76	28.8	0	0	---	0.00	30.118 
01:00	35.5	35.5	35.5	77	29.0	0	0	---	0.00	30.117 
01:05	35.2	35.2	35.2	77	28.7	0	0	---	0.00	30.117 
01:10	34.9	34.9	34.9	78	28.7	0	0	---	0.00	30.117 
01:15	34.7	34.7	34.7	79	28.9	0	0	---	0.00	30.112 
01:20	34.4	34.4	34.4	79	28.6	0	0	---	0.00	30.112 
01:25	34.3	34.3	34.3	80	28.8	0	0	---	0.00	30.112 
01:30	34.1	34.1	34.1	81	28.9	0	0	---	0.00	30.108 
01:35	34.0	34.0	34.0	81	28.8	0	0	---	0.00	30.108 
01:40	33.8	33.8	33.8	81	28.6	0	0	---	0.00	30.108 
01:45	33.7	33.7	33.7	82	28.8	0	0	---	0.00	30.109 
01:50	33.7	33.7	33.7	82	28.8	0	0	---	0.00	30.109 
01:55	33.5	33.5	33.5	82	28.6	0	0	---	0.00	30.109 
02:00	33.5	33.5	33.5	83	28.9	0	0	---	0.00	30.110 
02:05	33.5	33.5	33.5	83	28.9	0	0	---	0.00	30.110 
02:10	33.5	33.5	33.5	83	28.9	0	0	---	0.00	30.110 
02:15	33.5	33.5	33.5	84	29.2	0	0	---	0.00	30.106 
02:20	33.7	33.7	33.7	84	29.4	0	0	---	0.00	30.106 
02:25	34.0	34.0	34.0	84	29.7	0	0	---	0.00	30.106 
02:30	34.1	34.1	34.1	84	29.8	0	0	---	0.00	30.113 
02:35	34.3	34.3	34.3	84	30.0	0	0	---	0.00	30.113 
02:40	34.3	34.3	34.3	85	30.3	0	0	---	0.00	30.113 
02:45	34.4	34.4	34.4	85	30.4	0	0	---	0.00	30.105 
02:50	34.6	34.6	34.6	85	30.6	0	0	---	0.00	30.105 
02:55	34.9	34.9	34.9	85	30.9	0	0	---	0.00	30.105 
03:00	35.0	35.0	35.0	85	31.0	0	0	---	0.00	30.109 
03:05	35.3	35.3	35.3	85	31.2	0	0	---	0.00	30.109 
03:10	35.5	35.5	35.5	85	31.4	0	0	---	0.00	30.109 
03:15	35.6	35.6	35.6	85	31.5	0	0	---	0.00	30.111 
03:20	35.8	35.8	35.8	85	31.7	0	0	---	0.00	30.111 
03:25	35.9	35.9	35.9	85	31.8	0	0	---	0.00	30.111 
03:30	35.9	35.9	35.9	85	31.8	0	0	---	0.00	30.110 
03:35	36.0	36.0	36.0	85	31.9	0	0	---	0.00	30.110 
03:40	36.0	36.0	36.0	85	31.9	0	0	---	0.00	30.110 
03:45	36.2	36.2	36.2	85	32.1	0	0	---	0.00	30.114 
03:50	36.2	36.2	36.2	85	32.1	0	0	---	0.00	30.114 
03:55	36.2	36.2	36.2	85	32.1	0	0	---	0.00	30.114 
04:00	36.2	36.2	36.2	85	32.1	0	0	---	0.00	30.115 
04:05	36.3	36.3	36.3	85	32.2	0	0	---	0.00	30.115 
04:10	36.3	36.3	36.3	85	32.2	0	0	---	0.00	30.115 
04:15	36.3	36.3	36.3	85	32.2	0	0	---	0.00	30.115 
04:20	36.2	36.2	36.2	85	32.1	0	0	---	0.00	30.115 
04:25	36.2	36.2	36.2	85	32.1	0	0	---	0.00	30.115 
04:30	36.3	36.3	36.3	85	32.2	0	0	---	0.00	30.113 
04:35	36.3	36.3	36.3	85	32.2	0	0	---	0.00	30.113 
04:40	36.3	36.3	36.3	86	32.5	0	0	---	0.00	30.113 
04:45	36.3	36.3	36.3	86	32.5	0	0	---	0.00	30.114 
04:50	36.3	36.3	36.3	86	32.5	0	0	---	0.00	30.114 
04:55	36.3	36.3	36.3	86	32.5	0	0	---	0.00	30.114 
05:00	36.3	36.3	36.3	86	32.5	0	0	---	0.00	30.115 
05:05	36.3	36.3	36.3	86	32.5	0	0	---	0.00	30.115 
05:10	36.3	36.3	36.3	86	32.5	0	0	---	0.00	30.115 
05:15	36.3	36.3	36.3	87	32.8	0	0	---	0.00	30.114 
05:20	36.2	36.2	36.2	87	32.7	0	0	---	0.00	30.114 
05:25	36.2	36.2	36.2	87	32.7	0	0	---	0.00	30.114 
05:30	36.0	36.0	36.0	87	32.5	0	0	---	0.00	30.113 
05:35	35.9	35.9	35.9	87	32.4	0	0	---	0.00	30.113 
05:40	35.8	35.8	35.8	87	32.3	0	0	---	0.00	30.113 
05:45	35.6	35.6	35.6	87	32.1	0	0	---	0.00	30.115 
05:50	35.3	35.3	35.3	87	31.8	0	0	---	0.00	30.115 
05:55	35.2	35.2	35.2	88	32.0	0	0	---	0.00	30.115 
06:00	35.0	35.0	35.0	88	31.8	0	0	---	0.00	30.115 
06:05	34.7	34.7	34.7	88	31.5	0	0	---	0.00	30.115 
06:10	34.6	34.6	34.6	88	31.4	0	0	---	0.00	30.115 
06:15	34.4	34.4	34.4	88	31.2	0	0	---	0.00	30.118 
06:20	34.3	34.3	34.3	88	31.1	0	0	---	0.00	30.118 
06:25	34.1	34.1	34.1	88	30.9	0	0	---	0.00	30.118 
06:30	34.0	34.0	34.0	88	30.8	0	0	---	0.00	30.120 
06:35	33.8	33.8	33.8	88	30.6	0	0	---	0.00	30.120 
06:40	33.7	33.7	33.7	89	30.8	0	0	---	0.00	30.120 
06:45	33.5	33.5	33.5	89	30.6	0	0	---	0.00	30.126 
06:50	33.5	33.5	33.5	89	30.6	0	0	---	0.00	30.126 
06:55	33.4	33.4	33.4	89	30.5	0	0	---	0.00	30.126 
07:00	33.4	33.4	33.4	89	30.5	0	0	---	0.00	30.128 
07:05	33.4	33.4	33.4	89	30.5	0	0	---	0.00	30.128 
07:10	33.5	33.5	33.5	90	30.9	0	0	---	0.00	30.128 
07:15	33.5	33.5	33.5	90	30.9	0	0	---	0.00	30.132 
07:20	33.7	33.7	33.7	90	31.1	0	0	---	0.00	30.132 
07:25	34.0	34.0	34.0	90	31.4	0	0	---	0.00	30.132 
07:30	34.1	34.1	34.1	90	31.5	0	0	---	0.00	30.134 
07:35	34.4	34.4	34.4	91	32.0	0	0	---	0.00	30.134 
07:40	34.9	34.9	34.9	91	32.5	0	0	---	0.00	30.134 
07:45	35.2	35.2	35.2	91	32.8	0	0	---	0.00	30.139 
07:50	35.8	35.8	35.8	91	33.4	0	0	---	0.00	30.139 
07:55	36.3	36.3	36.3	91	33.9	0	0	---	0.00	30.139 
08:00	36.9	36.9	36.9	91	34.5	0	0	---	0.00	30.146 
08:05	37.5	37.5	37.5	91	35.1	0	0	---	0.00	30.146 
08:10	38.0	38.0	38.0	90	35.3	0	0	---	0.00	30.146 
08:15	38.8	38.8	38.8	89	35.8	0	0	---	0.00	30.149 
08:20	39.5	39.5	39.5	88	36.2	0	0	---	0.00	30.149 
08:25	40.3	40.3	40.3	84	35.9	0	0	---	0.00	30.149 
08:30	41.5	41.5	41.5	79	35.5	0	1	292	0.00	30.158 
08:35	42.3	42.3	42.3	71	33.6	0	1	292	0.00	30.158 
08:40	43.3	43.3	43.3	64	32.0	0	1	292	0.00	30.158 
08:45	44.2	44.2	44.2	60	31.2	0	1	292	0.00	30.160 
08:50	44.9	44.9	44.9	56	30.2	0	1	292	0.00	30.160 
08:55	45.8	45.8	45.8	50	28.2	0	1	292	0.00	30.160 
09:00	46.7	46.7	46.7	49	28.6	0	1	292	0.00	30.163 
09:05	47.4	47.4	47.4	51	30.2	0	2	292	0.00	30.163 
09:10	47.6	47.6	47.6	46	27.9	0	2	292	0.00	30.163 
09:15	47.9	47.9	47.9	41	25.3	0	1	292	0.00	30.172 
09:20	48.2	48.2	48.2	43	26.8	0	1	292	0.00	30.172 
09:25	48.5	48.5	48.5	43	27.0	0	1	292	0.00	30.172 
09:30	49.2	49.2	49.2	40	25.9	0	1	292	0.00	30.171 
09:35	49.2	49.2	49.2	39	25.3	0	1	292	0.00	30.171 
09:40	49.1	49.1	49.1	41	26.4	0	1	292	0.00	30.171 
09:45	48.9	48.9	48.9	43	27.4	0	1	292	0.00	30.171 
09:50	48.9	48.9	48.9	40	25.7	0	2	292	0.00	30.171 
09:55	49.5	49.5	49.5	40	26.2	0	2	292	0.00	30.171 
10:00	49.6	49.6	49.6	40	26.3	0	2	292	0.00	30.171 
10:05	49.2	49.2	49.2	38	24.7	1	3	292	0.00	30.171 
10:10	49.4	49.4	49.4	41	26.7	0	1	292	0.00	30.171 
10:15	49.8	49.8	49.8	39	25.9	0	2	292	0.00	30.177 
10:20	50.2	50.2	50.2	43	28.6	0	1	292	0.00	30.177 
10:25	51.0	51.0	51.0	40	27.5	0	2	292	0.00	30.177 
10:30	51.6	51.6	51.6	39	27.5	0	2	292	0.00	30.176 
10:35	51.3	51.3	51.3	37	25.9	1	3	292	0.00	30.176 
10:40	51.0	51.0	51.0	38	26.3	1	4	292	0.00	30.176 
10:45	50.8	50.8	50.8	38	26.1	1	4	292	0.00	30.178 
10:50	50.7	50.7	50.7	37	25.4	0	2	292	0.00	30.178 
10:55	51.1	51.1	51.1	37	25.7	0	2	292	0.00	30.178 
11:00	51.9	51.9	51.9	41	28.9	0	2	292	0.00	30.174 
11:05	51.9	51.9	51.9	40	28.3	0	3	292	0.00	30.174 
11:10	51.9	51.9	51.9	38	27.1	1	3	292	0.00	30.174 
11:15	52.2	52.2	52.2	39	28.0	1	3	292	0.00	30.175 
11:20	52.2	52.2	52.2	40	28.6	1	3	292	0.00	30.175 
11:25	52.2	52.2	52.2	39	28.0	1	4	292	0.00	30.175 
11:30	52.3	52.3	52.3	42	29.9	1	3	315	0.00	30.179 
11:35	52.8	52.8	52.8	41	29.8	0	2	315	0.00	30.179 
11:40	52.5	52.5	52.5	36	26.3	2	4	315	0.00	30.179 
11:45	52.3	52.3	52.3	39	28.1	0	2	315	0.00	30.180 
11:50	52.3	52.3	52.3	36	26.1	1	3	315	0.00	30.180 
11:55	52.8	52.8	52.8	38	27.9	1	2	315	0.00	30.180 
12:00	53.5	53.5	53.5	39	29.2	1	2	315	0.00	30.177 
12:05	53.6	53.6	53.6	34	25.9	1	4	315	0.00	30.177 
12:10	53.5	53.5	53.5	36	27.2	0	3	315	0.00	30.177 
12:15	53.1	53.1	53.1	35	26.2	1	3	315	0.00	30.178 
12:20	52.8	52.8	52.8	36	26.6	1	3	338	0.00	30.178 
12:25	52.6	52.6	52.6	33	24.3	0	2	0	0.00	30.178 
12:30	52.0	52.0	52.0	35	25.2	1	4	0	0.00	30.179 
12:35	52.3	52.3	52.3	39	28.1	1	4	270	0.00	30.179 
12:40	53.3	53.3	53.3	35	26.4	0	4	270	0.00	30.179 
12:45	53.8	53.8	53.8	33	25.4	1	5	292	0.00	30.176 
12:50	53.8	53.8	53.8	31	23.9	1	5	292	0.00	30.176 
12:55	54.5	54.5	54.5	34	26.7	2	4	292	0.00	30.176 
13:00	53.9	53.9	53.9	31	24.0	2	6	270	0.00	30.177 
13:05	53.3	53.3	53.3	32	24.2	1	4	315	0.00	30.177 
13:10	52.9	52.9	52.9	31	23.1	1	4	315	0.00	30.177 
13:15	53.5	53.5	53.5	31	23.6	2	6	292	0.00	30.178 
13:20	54.1	54.1	54.1	33	25.6	1	4	292	0.00	30.178 
13:25	54.4	54.4	54.4	35	27.3	2	5	270	0.00	30.178 
13:30	54.8	54.8	54.8	34	27.0	1	5	270	0.00	30.175 
13:35	54.5	54.5	54.5	31	24.5	1	3	270	0.00	30.175 
13:40	55.0	55.0	55.0	34	27.2	1	3	270	0.00	30.175 
13:45	54.5	54.5	54.5	30	23.7	1	4	270	0.00	30.175 
13:50	54.5	54.5	54.5	32	25.3	1	3	338	0.00	30.175 
13:55	55.3	55.3	55.3	30	24.4	1	3	338	0.00	30.175 
14:00	55.1	55.1	55.1	34	27.2	1	5	22	0.00	30.174 
14:05	55.4	55.4	55.4	30	24.5	1	7	315	0.00	30.174 
14:10	55.3	55.3	55.3	30	24.4	2	5	270	0.00	30.174 
14:15	55.4	55.4	55.4	28	22.8	1	5	338	0.00	30.165 
14:20	55.3	55.3	55.3	31	25.2	1	4	0	0.00	30.165 
14:25	56.0	56.0	56.0	35	28.7	1	3	315	0.00	30.165 
14:30	56.6	56.6	56.6	32	27.1	2	6	270	0.00	30.161 
14:35	56.7	56.7	56.7	31	26.4	3	6	270	0.00	30.161 
14:40	56.7	56.7	56.7	27	23.1	2	5	270	0.00	30.161 
14:45	57.0	57.0	57.0	32	27.4	1	4	270	0.00	30.157 
14:50	57.3	57.3	57.3	29	25.3	1	4	270	0.00	30.157 
14:55	57.2	57.2	57.2	28	24.4	1	5	270	0.00	30.157 
15:00	56.7	56.7	56.7	27	23.1	2	6	292	0.00	30.157 
15:05	57.2	57.2	57.2	31	26.8	1	6	292	0.00	30.157 
15:10	57.6	57.6	57.6	28	24.7	3	5	270	0.00	30.157 
15:15	57.5	57.5	57.5	30	26.3	2	6	270	0.00	30.151 
15:20	57.3	57.3	57.3	27	23.6	2	6	270	0.00	30.151 
15:25	56.7	56.7	56.7	31	26.4	2	5	270	0.00	30.151 
15:30	56.3	56.3	56.3	29	24.5	2	6	315	0.00	30.149 
15:35	56.6	56.6	56.6	27	23.0	2	6	270	0.00	30.149 
15:40	56.9	56.9	56.9	27	23.3	3	5	270	0.00	30.149 
15:45	57.2	57.2	57.2	27	23.5	1	4	292	0.00	30.145 
15:50	57.5	57.5	57.5	30	26.3	2	7	315	0.00	30.145 
15:55	57.3	57.3	57.3	30	26.1	2	4	270	0.00	30.145 
16:00	57.5	57.5	57.5	28	24.7	2	5	270	0.00	30.140 
16:05	57.6	57.6	57.6	28	24.7	2	5	270	0.00	30.140 
16:10	57.2	57.2	57.2	27	23.5	1	3	315	0.00	30.140 
16:15	57.3	57.3	57.3	30	26.1	0	2	315	0.00	30.136 
16:20	58.0	58.0	58.0	27	24.2	2	6	270	0.00	30.136 
16:25	58.0	58.0	58.0	28	25.1	1	3	292	0.00	30.136 
16:30	58.3	58.3	58.3	27	24.5	1	3	292	0.00	30.128 
16:35	58.1	58.1	58.1	28	25.2	2	4	315	0.00	30.128 
16:40	57.8	57.8	57.8	28	24.9	2	6	292	0.00	30.128 
16:45	57.6	57.6	57.6	27	23.9	2	5	292	0.00	30.123 
16:50	57.8	57.8	57.8	27	24.0	1	4	0	0.00	30.123 
16:55	58.0	58.0	58.0	28	25.1	2	5	315	0.00	30.123 
17:00	58.1	58.1	58.1	28	25.2	2	4	315	0.00	30.121 
17:05	58.1	58.1	58.1	26	23.4	2	5	292	0.00	30.121 
17:10	58.4	58.4	58.4	28	25.4	1	3	292	0.00	30.121 
17:15	58.6	58.6	58.6	27	24.7	2	5	248	0.00	30.112 
17:20	58.7	58.7	58.7	26	23.9	2	6	248	0.00	30.112 
17:25	58.7	58.7	58.7	26	23.9	1	4	292	0.00	30.112 
17:30	58.9	58.9	58.9	28	25.9	1	4	315	0.00	30.107 
17:35	58.7	58.7	58.7	25	23.0	2	6	338	0.00	30.107 
17:40	58.9	58.9	58.9	27	25.0	2	5	270	0.00	30.107 
17:45	59.0	59.0	59.0	26	24.2	2	4	270	0.00	30.107 
17:50	59.3	59.3	59.3	26	24.4	2	5	292	0.00	30.107 
17:55	58.9	58.9	58.9	25	23.1	3	6	315	0.00	30.107 
18:00	58.9	58.9	58.9	25	23.1	1	4	338	0.00	30.107 
18:05	58.6	58.6	58.6	25	22.9	1	3	292	0.00	30.107 
18:10	58.6	58.6	58.6	26	23.8	1	3	315	0.00	30.107 
18:15	58.3	58.3	58.3	25	22.6	1	5	315	0.00	30.107 
18:20	58.1	58.1	58.1	25	22.5	1	4	270	0.00	30.107 
18:25	58.4	58.4	58.4	26	23.7	2	5	270	0.00	30.107 
18:30	58.4	58.4	58.4	25	22.7	1	3	315	0.00	30.101 
18:35	58.4	58.4	58.4	24	21.8	2	6	338	0.00	30.101 
18:40	58.6	58.6	58.6	24	21.9	1	4	292	0.00	30.101 
18:45	58.6	58.6	58.6	24	21.9	2	5	270	0.00	30.097 
18:50	58.4	58.4	58.4	23	20.8	2	7	270	0.00	30.097 
18:55	58.4	58.4	58.4	25	22.7	1	4	292	0.00	30.097 
19:00	58.6	58.6	58.6	24	21.9	1	3	292	0.00	30.099 
19:05	58.4	58.4	58.4	24	21.8	2	5	0	0.00	30.099 
19:10	58.3	58.3	58.3	23	20.7	1	3	292	0.00	30.099 
19:15	58.3	58.3	58.3	23	20.7	1	3	292	0.00	30.097 
19:20	58.3	58.3	58.3	23	20.7	1	5	315	0.00	30.097 
19:25	58.3	58.3	58.3	21	18.5	2	4	270	0.00	30.097 
19:30	58.0	58.0	58.0	22	19.4	1	2	338	0.00	30.105 
19:35	57.6	57.6	57.6	21	18.0	1	3	338	0.00	30.105 
19:40	57.5	57.5	57.5	22	19.0	1	4	270	0.00	30.105 
19:45	57.2	57.2	57.2	22	18.7	1	3	315	0.00	30.108 
19:50	56.7	56.7	56.7	22	18.3	1	3	315	0.00	30.108 
19:55	56.3	56.3	56.3	23	19.0	1	3	248	0.00	30.108 
20:00	56.0	56.0	56.0	23	18.7	1	3	248	0.00	30.112 
20:05	55.7	55.7	55.7	23	18.5	0	2	248	0.00	30.112 
20:10	55.4	55.4	55.4	24	19.2	0	1	248	0.00	30.112 
20:15	55.1	55.1	55.1	24	19.0	0	1	248	0.00	30.106 
20:20	54.8	54.8	54.8	25	19.7	0	0	---	0.00	30.106 
20:25	54.5	54.5	54.5	25	19.4	0	1	248	0.00	30.106 
20:30	54.1	54.1	54.1	27	20.9	0	0	---	0.00	30.110 
20:35	53.5	53.5	53.5	28	21.2	0	0	---	0.00	30.110 
20:40	53.1	53.1	53.1	28	20.9	0	0	---	0.00	30.110 
20:45	52.8	52.8	52.8	27	19.8	0	0	---	0.00	30.118 
20:50	52.3	52.3	52.3	29	21.0	0	0	---	0.00	30.118 
20:55	51.9	51.9	51.9	29	20.7	0	0	---	0.00	30.118 
21:00	51.6	51.6	51.6	31	22.0	0	0	---	0.00	30.120 
21:05	51.1	51.1	51.1	33	23.0	0	0	---	0.00	30.120 
21:10	50.8	50.8	50.8	35	24.1	0	0	---	0.00	30.120 
21:15	50.4	50.4	50.4	35	23.8	0	0	---	0.00	30.117 
21:20	50.1	50.1	50.1	37	24.9	0	0	---	0.00	30.117 
21:25	49.5	49.5	49.5	38	25.0	0	0	---	0.00	30.117 
21:30	49.1	49.1	49.1	38	24.6	0	0	---	0.00	30.116 
21:35	48.6	48.6	48.6	41	26.0	0	0	---	0.00	30.116 
21:40	48.3	48.3	48.3	41	25.7	0	0	---	0.00	30.116 
21:45	48.0	48.0	48.0	43	26.6	0	0	---	0.00	30.118 
21:50	47.6	47.6	47.6	44	26.8	0	0	---	0.00	30.118 
21:55	47.3	47.3	47.3	45	27.0	0	0	---	0.00	30.118 
22:00	47.0	47.0	47.0	48	28.3	0	0	---	0.00	30.120 
22:05	46.7	46.7	46.7	48	28.1	0	0	---	0.00	30.120 
22:10	46.5	46.5	46.5	50	28.9	0	0	---	0.00	30.120 
22:15	46.2	46.2	46.2	50	28.6	0	0	---	0.00	30.118 
22:20	46.1	46.1	46.1	49	28.0	0	0	---	0.00	30.118 
22:25	46.0	46.0	46.0	51	28.9	0	0	---	0.00	30.118 
22:30	45.8	45.8	45.8	52	29.2	0	0	---	0.00	30.118 
22:35	45.7	45.7	45.7	53	29.6	0	0	---	0.00	30.118 
22:40	45.5	45.5	45.5	53	29.4	0	0	---	0.00	30.118 
22:45	45.4	45.4	45.4	54	29.7	0	0	---	0.00	30.114 
22:50	45.2	45.2	45.2	54	29.6	0	0	---	0.00	30.114 
22:55	45.1	45.1	45.1	55	29.9	0	0	---	0.00	30.114 
23:00	45.1	45.1	45.1	55	29.9	0	0	---	0.00	30.109 
23:05	45.1	45.1	45.1	57	30.8	0	0	---	0.00	30.109 
23:10	45.1	45.1	45.1	58	31.2	0	0	---	0.00	30.109 
23:15	45.1	45.1	45.1	58	31.2	0	0	---	0.00	30.104 
23:20	45.1	45.1	45.1	58	31.2	0	0	---	0.00	30.104 
23:25	45.1	45.1	45.1	58	31.2	0	0	---	0.00	30.104 
23:30	45.1	45.1	45.1	59	31.6	0	0	---	0.00	30.103 
23:35	44.9	44.9	44.9	58	31.0	0	0	---	0.00	30.103 
23:40	44.9	44.9	44.9	59	31.5	0	0	---	0.00	30.103 
23:45	44.9	44.9	44.9	58	31.0	0	0	---	0.00	30.102 
23:50	44.9	44.9	44.9	59	31.5	0	0	---	0.00	30.102 
23:55	44.9	44.9	44.9	60	31.9	0	0	---	0.00	30.102 

CoCoRaHS
IN-AL-39
A2 Web Hosting
Creative Commons License
GoDaddy
search engine by freefind advanced

loaded 2018-11-17 14:47:02 • last modified 2010-11-18 10:43:29
Privacy PolicyDisclaimer
• wx.awcolley.com is powered by PmWiki v.2002016 •
• all content (unless otherwise noted) © 2018 A W Colley